Time;durP1;ratioP1;P1;durP2;ratioP2;P2;SDS_P1;SDS_P2;PMS_P1;PMS_P2;Temp;Humidity;BMP_temperature;BMP_pressure;BME280_temperature;BME280_humidity;BME280_pressure;Samples;Min_cycle;Max_cycle;Signal;HPM_P1;HPM_P2
2023/07/08 08:09:39;;;;;;;579.15;400.25;;;;;;;;;;5037552;28;20414;-56
2023/07/08 08:12:09;;;;;;;526.95;407.95;;;;;;;;;;5007888;28;20500;-58
2023/07/08 08:14:35;;;;;;;737.90;542.20;;;;;;;;;;4999461;28;20530;-59
2023/07/08 08:17:00;;;;;;;471.50;420.23;;;;;;;;;;5013103;28;20511;-61
2023/07/08 08:19:25;;;;;;;531.88;471.65;;;;;;;;;;5018459;28;20355;-60
2023/07/08 08:21:51;;;;;;;396.67;244.57;;;;;;;;;;5021700;28;20505;-62
2023/07/08 08:24:16;;;;;;;877.43;671.53;;;;;;;;;;5017053;28;20798;-59
2023/07/08 08:26:41;;;;;;;640.93;572.40;;;;;;;;;;5018694;28;20411;-62
2023/07/08 08:29:06;;;;;;;510.53;386.20;;;;;;;;;;5020476;28;20022;-61
2023/07/08 08:31:32;;;;;;;612.23;384.90;;;;;;;;;;5017910;28;20037;-60
2023/07/08 08:33:57;;;;;;;379.98;278.98;;;;;;;;;;5018064;28;20025;-59
2023/07/08 08:36:22;;;;;;;449.27;267.53;;;;;;;;;;5015382;28;20033;-58
2023/07/08 08:38:48;;;;;;;445.42;281.30;;;;;;;;;;5019960;28;20080;-59
2023/07/08 08:41:14;;;;;;;784.05;421.58;;;;;;;;;;5020210;28;20069;-58
2023/07/08 08:43:40;;;;;;;306.75;204.25;;;;;;;;;;5018887;28;20445;-58
2023/07/08 08:46:11;;;;;;;606.45;360.75;;;;;;;;;;5016271;28;20298;-59
2023/07/08 08:49:06;;;;;;;513.22;315.65;;;;;;;;;;5017694;28;20041;-56
2023/07/08 08:51:32;;;;;;;581.97;491.52;;;;;;;;;;5012200;28;20072;-55
2023/07/08 08:53:58;;;;;;;568.08;420.95;;;;;;;;;;5021318;28;20028;-53
2023/07/08 08:56:25;;;;;;;747.15;368.20;;;;;;;;;;5014908;28;20125;-56
2023/07/08 08:59:08;;;;;;;723.80;401.33;;;;;;;;;;5019454;28;20026;-55
2023/07/08 09:01:33;;;;;;;1459.70;607.60;;;;;;;;;;5017522;28;20072;-54
2023/07/08 09:04:11;;;;;;;623.00;360.47;;;;;;;;;;5019930;28;20024;-55
2023/07/08 09:06:38;;;;;;;588.13;484.30;;;;;;;;;;5015705;28;20521;-54
2023/07/08 09:09:16;;;;;;;372.58;263.48;;;;;;;;;;5019725;28;20099;-56
2023/07/08 09:11:41;;;;;;;244.07;217.30;;;;;;;;;;5015807;28;20102;-55
2023/07/08 09:14:14;;;;;;;533.33;483.10;;;;;;;;;;5019012;28;20096;-55
2023/07/08 09:16:45;;;;;;;448.48;405.80;;;;;;;;;;5015806;28;20276;-57
2023/07/08 09:19:24;;;;;;;537.97;481.75;;;;;;;;;;5016142;28;20056;-56
2023/07/08 09:21:53;;;;;;;339.73;190.32;;;;;;;;;;5004925;28;20044;-58
2023/07/08 09:24:29;;;;;;;453.10;330.40;;;;;;;;;;5005978;28;20025;-54
2023/07/08 09:26:56;;;;;;;364.30;254.98;;;;;;;;;;5003454;28;20064;-54
2023/07/08 09:29:22;;;;;;;471.23;379.10;;;;;;;;;;5005091;28;20962;-57
2023/07/08 09:31:47;;;;;;;470.23;297.45;;;;;;;;;;5003859;28;20040;-58
2023/07/08 09:34:17;;;;;;;404.33;207.07;;;;;;;;;;5004236;28;20512;-59
2023/07/08 09:36:44;;;;;;;392.88;269.08;;;;;;;;;;5002378;28;20057;-59
2023/07/08 09:39:10;;;;;;;488.20;292.30;;;;;;;;;;5005842;28;20029;-57
2023/07/08 09:41:36;;;;;;;836.05;467.75;;;;;;;;;;5003727;28;20033;-56
2023/07/08 09:44:06;;;;;;;1260.00;610.45;;;;;;;;;;5005624;28;20032;-56
2023/07/08 09:46:37;;;;;;;544.20;488.10;;;;;;;;;;5001230;28;20040;-58
2023/07/08 09:49:15;;;;;;;530.28;250.90;;;;;;;;;;5004527;28;20021;-58
2023/07/08 09:51:40;;;;;;;581.13;394.27;;;;;;;;;;5002482;28;20107;-57
2023/07/08 09:54:05;;;;;;;583.20;472.63;;;;;;;;;;5006863;28;20021;-55
2023/07/08 09:56:30;;;;;;;508.63;379.27;;;;;;;;;;5001951;28;20121;-56
2023/07/08 09:58:56;;;;;;;470.63;327.13;;;;;;;;;;5004294;28;20395;-55
2023/07/08 10:01:24;;;;;;;274.67;154.20;;;;;;;;;;5004374;28;20143;-54
2023/07/08 10:03:49;;;;;;;897.50;542.20;;;;;;;;;;5012016;28;20036;-56
2023/07/08 10:06:21;;;;;;;421.70;273.90;;;;;;;;;;5000882;28;20030;-57
2023/07/08 10:08:46;;;;;;;602.22;326.88;;;;;;;;;;5003643;28;20034;-54
2023/07/08 10:11:18;;;;;;;650.10;524.30;;;;;;;;;;5004777;28;20506;-56
2023/07/08 10:13:45;;;;;;;210.68;91.75;;;;;;;;;;5004588;28;20028;-56
2023/07/08 10:16:16;;;;;;;493.00;400.73;;;;;;;;;;5002479;28;20025;-57
2023/07/08 10:18:42;;;;;;;528.88;473.40;;;;;;;;;;5003475;28;20028;-56
2023/07/08 10:21:22;;;;;;;473.15;349.13;;;;;;;;;;5003241;28;20034;-54
2023/07/08 10:23:51;;;;;;;417.80;380.63;;;;;;;;;;5004332;28;20030;-55
2023/07/08 10:26:24;;;;;;;907.53;627.45;;;;;;;;;;5004583;28;20882;-54
2023/07/08 10:29:09;;;;;;;461.42;343.70;;;;;;;;;;5002460;28;20014;-55
2023/07/08 10:31:54;;;;;;;386.83;157.48;;;;;;;;;;5001208;28;20030;-55
2023/07/08 10:34:28;;;;;;;749.42;496.95;;;;;;;;;;5003789;28;20029;-55
2023/07/08 10:37:01;;;;;;;568.95;507.85;;;;;;;;;;5002603;28;20029;-57
2023/07/08 10:39:40;;;;;;;517.00;463.60;;;;;;;;;;4997661;28;20021;-56
2023/07/08 10:42:22;;;;;;;453.10;294.92;;;;;;;;;;5001827;28;20033;-57
2023/07/08 10:44:58;;;;;;;428.73;245.25;;;;;;;;;;5000970;28;20033;-56
2023/07/08 10:47:50;;;;;;;496.52;348.02;;;;;;;;;;5001236;28;20026;-54
2023/07/08 10:50:42;;;;;;;1824.35;642.38;;;;;;;;;;4995889;28;20065;-54
2023/07/08 10:53:21;;;;;;;975.67;400.60;;;;;;;;;;4998535;28;20584;-54
2023/07/08 10:56:09;;;;;;;668.55;365.27;;;;;;;;;;5001374;28;20714;-53
2023/07/08 10:58:40;;;;;;;705.92;542.13;;;;;;;;;;5001486;28;20033;-55
2023/07/08 11:01:24;;;;;;;577.03;456.00;;;;;;;;;;5002625;28;20509;-56
2023/07/08 11:03:55;;;;;;;435.25;391.42;;;;;;;;;;5005552;28;20075;-56
2023/07/08 11:06:23;;;;;;;405.48;362.52;;;;;;;;;;5000767;28;20030;-56
2023/07/08 11:09:00;;;;;;;398.58;358.90;;;;;;;;;;5002696;28;20471;-55
2023/07/08 11:11:25;;;;;;;913.47;568.90;;;;;;;;;;5003079;28;20450;-54
2023/07/08 11:13:53;;;;;;;611.03;547.17;;;;;;;;;;5003630;28;20522;-56
2023/07/08 11:16:21;;;;;;;709.60;419.05;;;;;;;;;;5000806;28;20060;-55
2023/07/08 11:18:46;;;;;;;689.13;615.75;;;;;;;;;;5003045;28;20590;-56
2023/07/08 11:21:14;;;;;;;611.47;546.50;;;;;;;;;;5004763;28;20609;-56
2023/07/08 11:23:39;;;;;;;1793.63;884.10;;;;;;;;;;5002622;28;20029;-55
2023/07/08 11:26:22;;;;;;;624.80;388.30;;;;;;;;;;5001295;28;20045;-55
2023/07/08 11:28:49;;;;;;;605.22;529.88;;;;;;;;;;5003212;28;20029;-56
2023/07/08 11:31:14;;;;;;;453.95;408.85;;;;;;;;;;5003553;28;20037;-59
2023/07/08 11:33:40;;;;;;;780.15;594.17;;;;;;;;;;5002646;28;20018;-57
2023/07/08 11:36:05;;;;;;;473.80;426.65;;;;;;;;;;5001840;28;20643;-56
2023/07/08 11:38:32;;;;;;;593.22;441.67;;;;;;;;;;5002938;28;20029;-55
2023/07/08 11:41:00;;;;;;;442.33;397.15;;;;;;;;;;5005080;28;20495;-57
2023/07/08 11:43:27;;;;;;;799.38;556.45;;;;;;;;;;5003048;28;20068;-57
2023/07/08 11:45:54;;;;;;;689.78;615.35;;;;;;;;;;5003441;28;20025;-55
2023/07/08 11:48:31;;;;;;;522.03;457.00;;;;;;;;;;5001493;28;20072;-56
2023/07/08 11:50:57;;;;;;;936.60;581.30;;;;;;;;;;5001565;28;20033;-57
2023/07/08 11:53:28;;;;;;;511.02;458.88;;;;;;;;;;5001694;28;20022;-55
2023/07/08 11:55:53;;;;;;;;;;;;;;;;;;4999790;28;20042;-55
2023/07/08 11:58:20;;;;;;;694.85;576.40;;;;;;;;;;5004813;28;19928;-57
2023/07/08 12:00:51;;;;;;;631.30;462.75;;;;;;;;;;5000856;28;20479;-56
2023/07/08 12:03:21;;;;;;;384.63;344.67;;;;;;;;;;5003110;28;20029;-54
2023/07/08 12:05:46;;;;;;;509.67;410.13;;;;;;;;;;4998678;28;20077;-57
2023/07/08 12:08:13;;;;;;;596.28;476.05;;;;;;;;;;5000745;28;20033;-57
2023/07/08 12:10:40;;;;;;;580.58;375.73;;;;;;;;;;5000623;28;20345;-55
2023/07/08 12:13:11;;;;;;;471.60;359.23;;;;;;;;;;5002163;28;20141;-57
2023/07/08 12:15:36;;;;;;;502.97;449.97;;;;;;;;;;5001304;28;20277;-56
2023/07/08 12:18:04;;;;;;;708.90;595.83;;;;;;;;;;5008451;28;20481;-56
2023/07/08 12:20:34;;;;;;;327.23;292.17;;;;;;;;;;5001442;28;20050;-53
2023/07/08 12:23:00;;;;;;;449.48;405.65;;;;;;;;;;5002069;28;20410;-54
2023/07/08 12:25:31;;;;;;;485.48;435.70;;;;;;;;;;4998967;28;20045;-54
2023/07/08 12:27:57;;;;;;;501.48;442.17;;;;;;;;;;5001442;28;20030;-55
2023/07/08 12:30:22;;;;;;;498.33;446.60;;;;;;;;;;5000883;28;20025;-54
2023/07/08 12:32:48;;;;;;;627.00;533.22;;;;;;;;;;4999089;28;20026;-53
2023/07/08 12:35:22;;;;;;;521.30;466.53;;;;;;;;;;5001498;28;20014;-53
2023/07/08 12:37:47;;;;;;;557.00;369.30;;;;;;;;;;5000586;28;20025;-56
2023/07/08 12:40:13;;;;;;;375.02;333.83;;;;;;;;;;5001012;28;20245;-53
2023/07/08 12:42:39;;;;;;;489.15;438.17;;;;;;;;;;5001728;28;20041;-57
2023/07/08 12:45:11;;;;;;;309.57;277.73;;;;;;;;;;5001201;28;20033;-58
2023/07/08 12:47:37;;;;;;;595.63;483.00;;;;;;;;;;5001659;28;20045;-55
2023/07/08 16:00:20;;;;;;;297.13;265.13;;;;;;;;;;5074085;27;1293451;-58
2023/07/08 16:02:46;;;;;;;356.48;305.17;;;;;;;;;;5078005;28;20083;-56
2023/07/08 16:05:12;;;;;;;301.48;268.80;;;;;;;;;;5079688;28;20028;-57
2023/07/08 16:07:37;;;;;;;220.23;197.02;;;;;;;;;;5071590;28;20027;-55
2023/07/08 16:10:02;;;;;;;355.63;287.08;;;;;;;;;;5067048;28;20033;-58
2023/07/08 16:12:28;;;;;;;366.75;316.33;;;;;;;;;;5068464;28;20536;-58
2023/07/08 16:14:53;;;;;;;289.80;234.27;;;;;;;;;;5060718;28;20476;-55
2023/07/08 16:17:18;;;;;;;226.07;198.10;;;;;;;;;;5066120;28;20683;-55
2023/07/08 16:19:44;;;;;;;278.20;241.93;;;;;;;;;;5065726;28;20381;-54
2023/07/08 16:22:10;;;;;;;300.47;264.20;;;;;;;;;;5065630;28;20033;-54
2023/07/08 16:24:35;;;;;;;281.83;242.52;;;;;;;;;;5068116;28;20391;-56
2023/07/08 16:27:00;;;;;;;265.50;199.80;;;;;;;;;;5065098;28;20085;-57
2023/07/08 16:29:27;;;;;;;252.80;223.70;;;;;;;;;;5067858;28;20020;-56
2023/07/08 16:31:52;;;;;;;384.77;266.75;;;;;;;;;;5068217;28;20056;-55
2023/07/08 16:34:17;;;;;;;295.13;241.40;;;;;;;;;;5066260;28;20036;-55
2023/07/08 16:36:43;;;;;;;441.73;396.17;;;;;;;;;;5069991;28;20768;-54
2023/07/08 16:39:08;;;;;;;263.40;230.93;;;;;;;;;;5064972;28;20137;-55
2023/07/08 16:41:37;;;;;;;225.27;200.57;;;;;;;;;;5070354;28;20490;-55
2023/07/08 16:44:03;;;;;;;332.70;259.05;;;;;;;;;;5065259;28;20036;-55
2023/07/08 16:46:28;;;;;;;235.18;200.52;;;;;;;;;;5065749;28;20040;-54
2023/07/08 16:48:53;;;;;;;311.37;265.60;;;;;;;;;;5065178;28;20028;-57
2023/07/08 16:51:18;;;;;;;260.67;233.43;;;;;;;;;;5067627;28;20055;-60
2023/07/08 16:53:44;;;;;;;344.50;266.93;;;;;;;;;;5068346;28;20729;-56
2023/07/08 16:56:13;;;;;;;319.02;264.23;;;;;;;;;;5061398;28;20275;-55
2023/07/08 16:58:39;;;;;;;219.15;195.82;;;;;;;;;;5069514;28;20016;-54
2023/07/08 17:01:04;;;;;;;226.10;181.00;;;;;;;;;;5065372;28;20044;-55
2023/07/08 17:03:32;;;;;;;251.52;224.55;;;;;;;;;;5065795;28;20016;-57
2023/07/08 17:05:57;;;;;;;261.13;226.60;;;;;;;;;;5067907;28;20047;-55
2023/07/08 17:08:22;;;;;;;250.67;222.57;;;;;;;;;;5067862;28;20020;-55
2023/07/08 17:10:48;;;;;;;247.87;209.60;;;;;;;;;;5054233;28;20279;-56
2023/07/08 17:13:13;;;;;;;219.40;196.90;;;;;;;;;;5053210;28;20498;-59
2023/07/08 17:15:39;;;;;;;208.00;181.97;;;;;;;;;;5050813;28;20512;-56
2023/07/08 17:18:04;;;;;;;363.77;286.70;;;;;;;;;;5049669;28;20186;-56
2023/07/08 17:20:38;;;;;;;318.45;277.67;;;;;;;;;;5054351;28;20036;-55
2023/07/08 17:23:11;;;;;;;428.98;328.70;;;;;;;;;;5050916;28;20021;-54
2023/07/08 17:25:36;;;;;;;236.07;198.27;;;;;;;;;;5051593;28;20082;-54
2023/07/08 17:28:01;;;;;;;283.43;188.73;;;;;;;;;;5051102;28;20040;-56
2023/07/08 17:30:26;;;;;;;242.07;204.63;;;;;;;;;;5049461;28;20757;-57
2023/07/08 17:32:54;;;;;;;460.20;351.93;;;;;;;;;;5051513;28;20259;-56
2023/07/08 17:35:20;;;;;;;248.07;220.20;;;;;;;;;;5050688;28;20845;-57
2023/07/08 17:37:45;;;;;;;210.48;174.07;;;;;;;;;;5055081;28;20025;-55
2023/07/08 17:40:15;;;;;;;305.97;243.70;;;;;;;;;;5051040;28;20089;-54
2023/07/08 17:42:40;;;;;;;313.95;261.35;;;;;;;;;;5053406;28;20363;-54
2023/07/08 17:45:07;;;;;;;303.45;225.50;;;;;;;;;;5054924;28;20042;-56
2023/07/08 17:47:33;;;;;;;246.13;200.73;;;;;;;;;;5050559;28;20029;-55
2023/07/08 17:49:58;;;;;;;293.85;205.73;;;;;;;;;;5051599;28;20391;-57
2023/07/08 17:52:23;;;;;;;249.33;214.17;;;;;;;;;;5053509;28;20167;-56
2023/07/08 17:54:48;;;;;;;216.97;174.73;;;;;;;;;;5052103;28;20041;-55
2023/07/08 17:57:14;;;;;;;311.13;255.90;;;;;;;;;;5049668;28;20873;-55
2023/07/08 17:59:39;;;;;;;199.80;177.48;;;;;;;;;;5048695;28;20381;-55
2023/07/08 18:02:25;;;;;;;306.77;221.37;;;;;;;;;;5053014;28;20433;-58
2023/07/08 18:04:51;;;;;;;327.27;286.20;;;;;;;;;;5050697;28;20029;-54
2023/07/08 18:07:16;;;;;;;281.83;237.35;;;;;;;;;;5051764;28;20032;-55
2023/07/08 18:09:42;;;;;;;284.17;228.63;;;;;;;;;;5056084;28;20056;-56
2023/07/08 18:12:08;;;;;;;327.40;262.70;;;;;;;;;;5052558;28;20279;-56
2023/07/08 18:14:33;;;;;;;271.02;216.55;;;;;;;;;;5054190;28;20265;-56
2023/07/08 18:16:58;;;;;;;272.83;194.47;;;;;;;;;;5051935;28;20405;-55
2023/07/08 18:19:24;;;;;;;231.63;190.27;;;;;;;;;;5050537;28;20271;-58
2023/07/08 18:21:49;;;;;;;245.32;210.95;;;;;;;;;;5055160;28;20270;-57
2023/07/08 18:24:16;;;;;;;270.40;225.00;;;;;;;;;;5053610;28;20107;-54
2023/07/08 18:26:41;;;;;;;237.02;193.23;;;;;;;;;;5052675;28;20110;-56
2023/07/08 18:29:07;;;;;;;280.53;195.93;;;;;;;;;;5049928;28;20115;-58
2023/07/08 18:31:34;;;;;;;257.20;204.18;;;;;;;;;;5054860;28;20275;-56
2023/07/08 18:34:00;;;;;;;303.73;220.93;;;;;;;;;;5052420;28;20483;-56
2023/07/08 18:36:26;;;;;;;235.73;189.15;;;;;;;;;;5051241;28;20043;-55
2023/07/08 18:38:53;;;;;;;273.20;216.90;;;;;;;;;;5054361;28;20021;-53
2023/07/08 18:41:23;;;;;;;295.02;223.43;;;;;;;;;;5053877;28;20549;-53
2023/07/08 18:43:48;;;;;;;282.65;207.45;;;;;;;;;;5050532;28;20020;-55
2023/07/08 18:46:14;;;;;;;254.00;192.85;;;;;;;;;;5054397;28;20520;-57
2023/07/08 18:48:41;;;;;;;251.98;213.07;;;;;;;;;;5052017;28;20064;-56
2023/07/08 18:51:16;;;;;;;292.35;212.35;;;;;;;;;;5051587;28;20322;-57
2023/07/08 18:53:41;;;;;;;279.02;249.25;;;;;;;;;;5053781;28;20082;-58
2023/07/08 18:56:11;;;;;;;260.30;215.00;;;;;;;;;;5050845;28;20027;-57
2023/07/08 18:58:36;;;;;;;285.20;254.30;;;;;;;;;;5050298;28;20736;-58
2023/07/08 19:01:01;;;;;;;267.07;238.17;;;;;;;;;;5053209;28;20502;-57
2023/07/08 19:03:31;;;;;;;291.27;263.87;;;;;;;;;;5051747;28;20502;-54
2023/07/08 19:05:58;;;;;;;275.60;225.07;;;;;;;;;;5051254;28;20485;-55
2023/07/08 19:08:24;;;;;;;296.98;265.33;;;;;;;;;;5051053;28;20008;-55
2023/07/08 19:10:54;;;;;;;254.87;212.70;;;;;;;;;;5053617;28;20122;-56
2023/07/08 19:13:19;;;;;;;257.38;219.02;;;;;;;;;;5055971;28;20645;-56
2023/07/08 19:15:45;;;;;;;258.02;223.25;;;;;;;;;;5050913;28;20040;-59
2023/07/08 19:18:10;;;;;;;306.60;221.90;;;;;;;;;;5050202;28;20039;-58
2023/07/08 19:20:37;;;;;;;253.90;227.15;;;;;;;;;;5052560;28;20078;-56
2023/07/08 19:23:05;;;;;;;304.52;245.48;;;;;;;;;;5048874;28;20017;-58
2023/07/08 19:25:31;;;;;;;257.83;218.32;;;;;;;;;;5047732;28;20432;-55
2023/07/08 19:27:56;;;;;;;283.23;251.70;;;;;;;;;;5050419;28;20025;-58
2023/07/08 19:30:21;;;;;;;285.65;255.38;;;;;;;;;;5051137;28;20041;-58
2023/07/08 19:32:48;;;;;;;280.63;250.17;;;;;;;;;;5050143;28;20055;-57
2023/07/08 19:35:20;;;;;;;319.52;285.67;;;;;;;;;;5047569;28;20506;-56
2023/07/08 19:37:46;;;;;;;268.95;243.45;;;;;;;;;;5048499;28;20497;-57
2023/07/08 19:40:13;;;;;;;299.55;255.18;;;;;;;;;;5049699;28;20570;-57
2023/07/08 19:42:38;;;;;;;302.58;275.30;;;;;;;;;;5052667;28;20477;-55
2023/07/08 19:45:04;;;;;;;264.23;233.90;;;;;;;;;;5051252;28;20112;-58
2023/07/08 19:47:29;;;;;;;287.50;260.30;;;;;;;;;;5050489;28;20029;-55
2023/07/08 19:49:54;;;;;;;285.40;256.67;;;;;;;;;;5050584;28;20021;-58
2023/07/08 19:52:19;;;;;;;261.20;236.27;;;;;;;;;;5049120;28;20282;-57
2023/07/08 19:54:45;;;;;;;283.87;254.60;;;;;;;;;;5051291;28;20025;-58
2023/07/08 19:57:11;;;;;;;242.55;210.82;;;;;;;;;;5049840;28;20060;-56
2023/07/08 19:59:36;;;;;;;280.38;252.98;;;;;;;;;;5055266;28;20465;-57
2023/07/08 20:02:02;;;;;;;304.20;269.83;;;;;;;;;;5049949;28;20040;-57
2023/07/08 20:04:27;;;;;;;277.17;248.70;;;;;;;;;;5051542;28;20021;-56
2023/07/08 20:06:54;;;;;;;296.50;266.55;;;;;;;;;;5049291;28;20095;-56
2023/07/08 20:09:19;;;;;;;295.13;266.17;;;;;;;;;;5054633;28;20019;-53
2023/07/08 20:11:45;;;;;;;293.23;264.02;;;;;;;;;;5050201;28;20051;-56
2023/07/08 20:14:10;;;;;;;288.35;258.58;;;;;;;;;;5048685;28;20050;-57
2023/07/08 20:16:36;;;;;;;282.92;255.13;;;;;;;;;;5049334;28;20067;-57
2023/07/08 20:19:01;;;;;;;326.95;292.90;;;;;;;;;;5048162;28;20037;-59
2023/07/08 20:21:27;;;;;;;314.23;281.15;;;;;;;;;;5046978;28;20024;-59
2023/07/08 20:23:52;;;;;;;417.38;381.67;;;;;;;;;;5048923;28;20031;-58
2023/07/08 20:26:34;;;;;;;316.58;283.92;;;;;;;;;;5048917;28;20035;-58
2023/07/08 20:28:59;;;;;;;;;;;;;;;;;;5048033;28;20524;-57
2023/07/08 20:31:25;;;;;;;446.63;401.08;;;;;;;;;;5048493;28;19939;-55
2023/07/08 20:33:51;;;;;;;495.00;446.98;;;;;;;;;;5049292;28;20394;-55
2023/07/08 20:36:19;;;;;;;505.42;452.38;;;;;;;;;;5045082;28;20081;-55
2023/07/08 20:38:44;;;;;;;478.90;434.50;;;;;;;;;;5050798;28;20032;-58
2023/07/08 20:41:10;;;;;;;389.48;347.88;;;;;;;;;;5057216;28;20593;-56
2023/07/08 20:43:35;;;;;;;582.33;531.00;;;;;;;;;;5072857;28;20092;-56
2023/07/08 20:46:02;;;;;;;341.97;307.73;;;;;;;;;;5073701;27;20116;-55
2023/07/08 20:48:29;;;;;;;539.08;485.25;;;;;;;;;;5077008;28;20699;-56
2023/07/08 20:50:54;;;;;;;357.58;322.48;;;;;;;;;;5071234;28;20036;-53
2023/07/08 20:53:20;;;;;;;377.67;339.83;;;;;;;;;;5049839;28;20071;-55
2023/07/08 20:55:46;;;;;;;344.33;308.63;;;;;;;;;;5051224;28;20495;-54
2023/07/08 20:58:12;;;;;;;469.45;419.35;;;;;;;;;;5050625;28;20020;-55
2023/07/08 21:00:38;;;;;;;439.90;398.10;;;;;;;;;;5051653;28;20124;-57
2023/07/08 21:03:06;;;;;;;364.77;318.25;;;;;;;;;;5049179;28;20054;-56
2023/07/08 21:05:31;;;;;;;298.70;267.95;;;;;;;;;;5051741;28;20036;-57
2023/07/08 21:07:57;;;;;;;487.77;442.92;;;;;;;;;;5047677;28;20429;-56
2023/07/08 21:10:23;;;;;;;382.73;344.33;;;;;;;;;;5049377;28;20044;-55
2023/07/08 21:12:49;;;;;;;353.42;317.90;;;;;;;;;;5051742;28;20119;-54
2023/07/08 21:15:15;;;;;;;418.45;373.35;;;;;;;;;;5047734;28;20028;-55
2023/07/08 21:17:41;;;;;;;507.95;460.85;;;;;;;;;;5050705;28;20150;-56
2023/07/08 21:20:24;;;;;;;380.23;338.40;;;;;;;;;;5048926;28;20032;-55
2023/07/08 21:22:50;;;;;;;371.38;331.92;;;;;;;;;;5074806;28;20513;-57
2023/07/08 21:25:16;;;;;;;429.85;349.30;;;;;;;;;;5073390;28;20031;-57
2023/07/08 21:27:42;;;;;;;418.83;374.02;;;;;;;;;;5054186;28;20395;-57
2023/07/08 21:30:10;;;;;;;420.65;312.13;;;;;;;;;;5050058;28;20032;-55
2023/07/08 21:32:35;;;;;;;424.05;380.27;;;;;;;;;;5052687;28;20423;-55
2023/07/08 21:35:01;;;;;;;397.70;355.70;;;;;;;;;;5056654;28;20525;-56
2023/07/08 21:37:26;;;;;;;573.07;514.80;;;;;;;;;;5050310;28;20690;-57
2023/07/08 21:39:51;;;;;;;534.53;480.33;;;;;;;;;;5053915;28;20392;-57
2023/07/08 21:42:16;;;;;;;434.20;388.40;;;;;;;;;;5058313;28;20302;-55
2023/07/08 21:44:42;;;;;;;528.20;477.20;;;;;;;;;;5052152;28;20250;-56
2023/07/08 21:47:07;;;;;;;521.37;468.23;;;;;;;;;;5048710;28;20328;-55
2023/07/08 21:49:32;;;;;;;399.17;358.80;;;;;;;;;;5054979;28;20078;-56
2023/07/08 21:51:57;;;;;;;448.00;402.57;;;;;;;;;;5058023;28;20271;-54
2023/07/08 21:54:23;;;;;;;622.88;560.83;;;;;;;;;;5052601;28;20054;-55
